sensor_id;sensor_type;location;lat;lon;timestamp;pressure;altitude;pressure_sealevel;temperature;humidity
69127;BME280;56688;50.234;19.292;2023-03-31T00:02:02;97752.29;;;9.49;77.98
69127;BME280;56688;50.234;19.292;2023-03-31T00:04:32;97750.11;;;9.46;78.05
69127;BME280;56688;50.234;19.292;2023-03-31T00:06:59;97751.30;;;9.47;78.20
69127;BME280;56688;50.234;19.292;2023-03-31T00:09:26;97752.78;;;9.48;78.04
69127;BME280;56688;50.234;19.292;2023-03-31T00:11:55;97752.14;;;9.50;78.12
69127;BME280;56688;50.234;19.292;2023-03-31T00:14:22;97753.09;;;9.52;78.22
69127;BME280;56688;50.234;19.292;2023-03-31T00:16:49;97754.16;;;9.52;78.16
69127;BME280;56688;50.234;19.292;2023-03-31T00:19:16;97749.02;;;9.51;78.12
69127;BME280;56688;50.234;19.292;2023-03-31T00:21:46;97748.73;;;9.50;78.09
69127;BME280;56688;50.234;19.292;2023-03-31T00:24:14;97747.83;;;9.51;78.08
69127;BME280;56688;50.234;19.292;2023-03-31T00:26:41;97748.05;;;9.53;78.19
69127;BME280;56688;50.234;19.292;2023-03-31T00:29:10;97749.84;;;9.53;78.22
69127;BME280;56688;50.234;19.292;2023-03-31T00:31:37;97749.94;;;9.52;78.20
69127;BME280;56688;50.234;19.292;2023-03-31T00:34:05;97746.83;;;9.50;78.14
69127;BME280;56688;50.234;19.292;2023-03-31T00:36:32;97750.27;;;9.48;78.10
69127;BME280;56688;50.234;19.292;2023-03-31T00:39:04;97748.71;;;9.47;78.14
69127;BME280;56688;50.234;19.292;2023-03-31T00:41:36;97747.53;;;9.49;78.30
69127;BME280;56688;50.234;19.292;2023-03-31T00:44:09;97744.90;;;9.50;78.20
69127;BME280;56688;50.234;19.292;2023-03-31T00:46:57;97746.79;;;9.49;78.25
69127;BME280;56688;50.234;19.292;2023-03-31T00:49:31;97742.60;;;9.46;78.25
69127;BME280;56688;50.234;19.292;2023-03-31T00:54:35;97748.22;;;9.46;78.37
69127;BME280;56688;50.234;19.292;2023-03-31T00:57:04;97751.25;;;9.47;78.46
69127;BME280;56688;50.234;19.292;2023-03-31T00:59:37;97752.20;;;9.48;78.15
69127;BME280;56688;50.234;19.292;2023-03-31T01:02:05;97751.13;;;9.47;78.11
69127;BME280;56688;50.234;19.292;2023-03-31T01:04:35;97750.23;;;9.44;78.09
69127;BME280;56688;50.234;19.292;2023-03-31T01:07:15;97753.27;;;9.42;78.21
69127;BME280;56688;50.234;19.292;2023-03-31T01:09:45;97750.61;;;9.41;78.19
69127;BME280;56688;50.234;19.292;2023-03-31T01:12:15;97749.96;;;9.40;78.19
69127;BME280;56688;50.234;19.292;2023-03-31T01:14:45;97743.89;;;9.39;78.08
69127;BME280;56688;50.234;19.292;2023-03-31T01:17:13;97742.61;;;9.39;78.09
69127;BME280;56688;50.234;19.292;2023-03-31T01:43:58;97727.00;;;9.33;77.59
69127;BME280;56688;50.234;19.292;2023-03-31T01:46:34;97728.64;;;9.33;77.42
69127;BME280;56688;50.234;19.292;2023-03-31T01:49:20;97731.95;;;9.32;77.38
69127;BME280;56688;50.234;19.292;2023-03-31T01:52:01;97732.56;;;9.29;77.37
69127;BME280;56688;50.234;19.292;2023-03-31T01:54:37;97728.61;;;9.26;77.44
69127;BME280;56688;50.234;19.292;2023-03-31T01:57:17;97729.27;;;9.24;77.31
69127;BME280;56688;50.234;19.292;2023-03-31T01:59:56;97727.67;;;9.22;77.27
69127;BME280;56688;50.234;19.292;2023-03-31T02:02:31;97730.08;;;9.20;77.29
69127;BME280;56688;50.234;19.292;2023-03-31T02:05:01;97728.29;;;9.16;77.34
69127;BME280;56688;50.234;19.292;2023-03-31T02:07:34;97731.34;;;9.12;77.21
69127;BME280;56688;50.234;19.292;2023-03-31T02:10:05;97730.02;;;9.08;77.18
69127;BME280;56688;50.234;19.292;2023-03-31T02:12:34;97733.94;;;9.06;77.18
69127;BME280;56688;50.234;19.292;2023-03-31T02:15:06;97736.29;;;9.01;77.33
69127;BME280;56688;50.234;19.292;2023-03-31T02:17:38;97737.41;;;8.96;77.42
69127;BME280;56688;50.234;19.292;2023-03-31T02:20:11;97744.59;;;8.90;77.85
69127;BME280;56688;50.234;19.292;2023-03-31T02:22:44;97745.26;;;8.86;77.77
69127;BME280;56688;50.234;19.292;2023-03-31T02:25:14;97739.88;;;8.84;78.09
69127;BME280;56688;50.234;19.292;2023-03-31T02:27:48;97734.77;;;8.84;78.45
69127;BME280;56688;50.234;19.292;2023-03-31T02:30:18;97735.66;;;8.84;78.29
69127;BME280;56688;50.234;19.292;2023-03-31T02:32:45;97731.49;;;8.81;78.31
69127;BME280;56688;50.234;19.292;2023-03-31T02:35:17;97727.94;;;8.82;78.47
69127;BME280;56688;50.234;19.292;2023-03-31T02:37:45;97735.70;;;8.83;78.48
69127;BME280;56688;50.234;19.292;2023-03-31T02:40:19;97728.41;;;8.85;78.30
69127;BME280;56688;50.234;19.292;2023-03-31T02:42:48;97731.73;;;8.84;78.38
69127;BME280;56688;50.234;19.292;2023-03-31T02:45:35;97730.09;;;8.83;78.34
69127;BME280;56688;50.234;19.292;2023-03-31T02:48:04;97729.80;;;8.82;78.37
69127;BME280;56688;50.234;19.292;2023-03-31T02:50:43;97724.31;;;8.84;78.40
69127;BME280;56688;50.234;19.292;2023-03-31T02:53:22;97721.29;;;8.86;78.40
69127;BME280;56688;50.234;19.292;2023-03-31T02:58:57;97715.95;;;8.86;78.19
69127;BME280;56688;50.234;19.292;2023-03-31T03:04:28;97718.70;;;8.87;78.14
69127;BME280;56688;50.234;19.292;2023-03-31T03:07:15;97713.92;;;8.88;77.92
69127;BME280;56688;50.234;19.292;2023-03-31T03:12:39;97715.42;;;8.86;77.78
69127;BME280;56688;50.234;19.292;2023-03-31T03:15:12;97718.58;;;8.83;77.97
69127;BME280;56688;50.234;19.292;2023-03-31T03:17:44;97722.18;;;8.82;77.99
69127;BME280;56688;50.234;19.292;2023-03-31T03:20:14;97720.54;;;8.83;77.97
69127;BME280;56688;50.234;19.292;2023-03-31T03:22:41;97719.02;;;8.83;77.97
69127;BME280;56688;50.234;19.292;2023-03-31T03:25:11;97724.84;;;8.84;77.83
69127;BME280;56688;50.234;19.292;2023-03-31T03:27:39;97724.43;;;8.83;77.89
69127;BME280;56688;50.234;19.292;2023-03-31T03:30:08;97720.29;;;8.82;77.86
69127;BME280;56688;50.234;19.292;2023-03-31T03:32:36;97725.07;;;8.82;77.80
69127;BME280;56688;50.234;19.292;2023-03-31T03:35:04;97724.48;;;8.82;77.77
69127;BME280;56688;50.234;19.292;2023-03-31T03:37:32;97724.07;;;8.83;77.65
69127;BME280;56688;50.234;19.292;2023-03-31T03:39:59;97717.23;;;8.83;77.58
69127;BME280;56688;50.234;19.292;2023-03-31T03:42:26;97714.19;;;8.84;77.62
69127;BME280;56688;50.234;19.292;2023-03-31T03:44:53;97709.77;;;8.82;77.62
69127;BME280;56688;50.234;19.292;2023-03-31T03:47:20;97705.66;;;8.82;77.68
69127;BME280;56688;50.234;19.292;2023-03-31T03:49:46;97707.30;;;8.85;77.57
69127;BME280;56688;50.234;19.292;2023-03-31T03:52:15;97701.54;;;8.86;77.53
69127;BME280;56688;50.234;19.292;2023-03-31T03:54:42;97698.58;;;8.87;77.55
69127;BME280;56688;50.234;19.292;2023-03-31T03:57:09;97696.94;;;8.86;77.48
69127;BME280;56688;50.234;19.292;2023-03-31T03:59:36;97693.63;;;8.83;77.43
69127;BME280;56688;50.234;19.292;2023-03-31T04:02:03;97692.33;;;8.81;77.53
69127;BME280;56688;50.234;19.292;2023-03-31T04:04:30;97693.54;;;8.80;77.62
69127;BME280;56688;50.234;19.292;2023-03-31T04:06:57;97690.02;;;8.81;77.64
69127;BME280;56688;50.234;19.292;2023-03-31T04:09:24;97686.02;;;8.82;77.64
69127;BME280;56688;50.234;19.292;2023-03-31T04:11:51;97683.36;;;8.82;77.61
69127;BME280;56688;50.234;19.292;2023-03-31T04:14:18;97683.21;;;8.79;77.77
69127;BME280;56688;50.234;19.292;2023-03-31T04:16:45;97677.44;;;8.77;77.60
69127;BME280;56688;50.234;19.292;2023-03-31T04:19:13;97676.54;;;8.78;77.71
69127;BME280;56688;50.234;19.292;2023-03-31T04:21:43;97676.70;;;8.78;77.76
69127;BME280;56688;50.234;19.292;2023-03-31T04:24:11;97673.59;;;8.78;77.72
69127;BME280;56688;50.234;19.292;2023-03-31T04:26:41;97673.02;;;8.77;77.55
69127;BME280;56688;50.234;19.292;2023-03-31T04:29:10;97674.09;;;8.74;77.69
69127;BME280;56688;50.234;19.292;2023-03-31T04:31:39;97670.56;;;8.72;77.50
69127;BME280;56688;50.234;19.292;2023-03-31T04:34:10;97667.68;;;8.71;77.72
69127;BME280;56688;50.234;19.292;2023-03-31T04:36:40;97669.29;;;8.72;77.65
69127;BME280;56688;50.234;19.292;2023-03-31T04:39:08;97670.80;;;8.73;77.62
69127;BME280;56688;50.234;19.292;2023-03-31T04:41:36;97667.77;;;8.73;77.56
69127;BME280;56688;50.234;19.292;2023-03-31T04:44:03;97663.18;;;8.70;77.52
69127;BME280;56688;50.234;19.292;2023-03-31T04:46:31;97660.95;;;8.68;77.38
69127;BME280;56688;50.234;19.292;2023-03-31T04:48:58;97661.49;;;8.70;77.38
69127;BME280;56688;50.234;19.292;2023-03-31T04:51:26;97661.95;;;8.70;77.30
69127;BME280;56688;50.234;19.292;2023-03-31T04:53:54;97663.55;;;8.72;77.34
69127;BME280;56688;50.234;19.292;2023-03-31T04:56:21;97667.52;;;8.70;77.21
69127;BME280;56688;50.234;19.292;2023-03-31T04:58:48;97665.38;;;8.67;77.00
69127;BME280;56688;50.234;19.292;2023-03-31T05:01:15;97661.79;;;8.64;77.16
69127;BME280;56688;50.234;19.292;2023-03-31T05:03:45;97661.21;;;8.61;77.32
69127;BME280;56688;50.234;19.292;2023-03-31T05:06:15;97653.25;;;8.59;77.28
69127;BME280;56688;50.234;19.292;2023-03-31T05:08:42;97646.66;;;8.60;77.20
69127;BME280;56688;50.234;19.292;2023-03-31T05:11:09;97645.60;;;8.60;77.33
69127;BME280;56688;50.234;19.292;2023-03-31T05:13:36;97641.95;;;8.63;77.09
69127;BME280;56688;50.234;19.292;2023-03-31T05:16:06;97641.02;;;8.61;77.23
69127;BME280;56688;50.234;19.292;2023-03-31T05:18:34;97636.55;;;8.63;77.00
69127;BME280;56688;50.234;19.292;2023-03-31T05:21:11;97637.30;;;8.64;77.05
69127;BME280;56688;50.234;19.292;2023-03-31T05:23:38;97636.23;;;8.70;76.86
69127;BME280;56688;50.234;19.292;2023-03-31T05:26:05;97637.92;;;8.73;76.89
69127;BME280;56688;50.234;19.292;2023-03-31T05:28:34;97631.51;;;8.76;76.73
69127;BME280;56688;50.234;19.292;2023-03-31T05:31:02;97629.67;;;8.80;76.69
69127;BME280;56688;50.234;19.292;2023-03-31T05:33:30;97629.33;;;8.82;76.62
69127;BME280;56688;50.234;19.292;2023-03-31T05:35:57;97623.77;;;8.86;76.39
69127;BME280;56688;50.234;19.292;2023-03-31T05:38:26;97621.73;;;8.94;76.23
69127;BME280;56688;50.234;19.292;2023-03-31T05:40:57;97618.85;;;9.03;75.98
69127;BME280;56688;50.234;19.292;2023-03-31T05:43:24;97617.04;;;9.08;75.76
69127;BME280;56688;50.234;19.292;2023-03-31T05:45:51;97620.50;;;9.15;75.56
69127;BME280;56688;50.234;19.292;2023-03-31T05:48:18;97621.89;;;9.18;75.14
69127;BME280;56688;50.234;19.292;2023-03-31T05:50:45;97622.95;;;9.17;74.98
69127;BME280;56688;50.234;19.292;2023-03-31T05:53:12;97627.10;;;9.18;74.87
69127;BME280;56688;50.234;19.292;2023-03-31T05:55:39;97628.68;;;9.24;74.75
69127;BME280;56688;50.234;19.292;2023-03-31T05:58:06;97628.95;;;9.34;74.75
69127;BME280;56688;50.234;19.292;2023-03-31T06:00:35;97621.80;;;9.48;74.59
69127;BME280;56688;50.234;19.292;2023-03-31T06:03:03;97624.27;;;9.62;74.11
69127;BME280;56688;50.234;19.292;2023-03-31T06:05:34;97621.64;;;9.80;73.64
69127;BME280;56688;50.234;19.292;2023-03-31T06:08:01;97618.34;;;9.97;73.07
69127;BME280;56688;50.234;19.292;2023-03-31T06:10:28;97617.73;;;10.14;72.07
69127;BME280;56688;50.234;19.292;2023-03-31T06:12:55;97617.86;;;10.30;71.85
69127;BME280;56688;50.234;19.292;2023-03-31T06:15:21;97611.23;;;10.50;70.81
69127;BME280;56688;50.234;19.292;2023-03-31T06:17:48;97615.04;;;10.73;70.30
69127;BME280;56688;50.234;19.292;2023-03-31T06:20:15;97618.73;;;11.03;69.69
69127;BME280;56688;50.234;19.292;2023-03-31T06:22:54;97624.14;;;11.36;68.11
69127;BME280;56688;50.234;19.292;2023-03-31T06:25:21;97625.59;;;11.59;67.16
69127;BME280;56688;50.234;19.292;2023-03-31T06:27:47;97629.14;;;11.85;65.99
69127;BME280;56688;50.234;19.292;2023-03-31T06:30:14;97621.98;;;11.99;65.15
69127;BME280;56688;50.234;19.292;2023-03-31T06:32:41;97622.16;;;12.23;65.48
69127;BME280;56688;50.234;19.292;2023-03-31T06:35:08;97618.98;;;12.53;64.06
69127;BME280;56688;50.234;19.292;2023-03-31T06:37:35;97614.04;;;12.82;62.96
69127;BME280;56688;50.234;19.292;2023-03-31T06:40:02;97617.73;;;13.12;62.49
69127;BME280;56688;50.234;19.292;2023-03-31T06:42:30;97615.27;;;13.43;61.04
69127;BME280;56688;50.234;19.292;2023-03-31T06:44:57;97613.27;;;13.73;60.28
69127;BME280;56688;50.234;19.292;2023-03-31T06:47:23;97611.38;;;14.08;59.05
69127;BME280;56688;50.234;19.292;2023-03-31T06:49:50;97606.36;;;14.45;58.32
69127;BME280;56688;50.234;19.292;2023-03-31T06:52:17;97607.07;;;14.83;57.20
69127;BME280;56688;50.234;19.292;2023-03-31T06:54:44;97603.54;;;15.18;56.69
69127;BME280;56688;50.234;19.292;2023-03-31T06:57:11;97598.23;;;15.50;54.87
69127;BME280;56688;50.234;19.292;2023-03-31T06:59:38;97599.83;;;15.64;53.60
69127;BME280;56688;50.234;19.292;2023-03-31T07:02:05;97588.52;;;15.61;53.65
69127;BME280;56688;50.234;19.292;2023-03-31T07:04:32;97592.00;;;15.74;54.30
69127;BME280;56688;50.234;19.292;2023-03-31T07:06:59;97591.06;;;15.97;53.21
69127;BME280;56688;50.234;19.292;2023-03-31T07:09:26;97588.86;;;16.10;52.42
69127;BME280;56688;50.234;19.292;2023-03-31T07:11:53;97591.31;;;16.17;51.93
69127;BME280;56688;50.234;19.292;2023-03-31T07:14:22;97588.38;;;16.21;52.70
69127;BME280;56688;50.234;19.292;2023-03-31T07:16:49;97586.11;;;16.43;51.90
69127;BME280;56688;50.234;19.292;2023-03-31T07:19:16;97578.67;;;16.63;51.25
69127;BME280;56688;50.234;19.292;2023-03-31T07:21:43;97577.08;;;16.91;50.85
69127;BME280;56688;50.234;19.292;2023-03-31T07:24:11;97576.55;;;17.26;50.13
69127;BME280;56688;50.234;19.292;2023-03-31T07:26:38;97576.05;;;17.61;49.19
69127;BME280;56688;50.234;19.292;2023-03-31T07:29:05;97571.08;;;17.88;48.04
69127;BME280;56688;50.234;19.292;2023-03-31T07:31:32;97574.03;;;18.07;47.31
69127;BME280;56688;50.234;19.292;2023-03-31T07:34:00;97569.57;;;18.17;46.82
69127;BME280;56688;50.234;19.292;2023-03-31T07:36:28;97565.80;;;18.28;46.90
69127;BME280;56688;50.234;19.292;2023-03-31T07:38:55;97561.75;;;18.56;46.25
69127;BME280;56688;50.234;19.292;2023-03-31T07:41:22;97560.33;;;18.68;46.01
69127;BME280;56688;50.234;19.292;2023-03-31T07:43:50;97562.14;;;18.57;46.00
69127;BME280;56688;50.234;19.292;2023-03-31T07:46:20;97564.30;;;18.56;46.70
69127;BME280;56688;50.234;19.292;2023-03-31T07:48:49;97563.11;;;18.85;45.87
69127;BME280;56688;50.234;19.292;2023-03-31T07:51:18;97559.85;;;18.80;44.92
69127;BME280;56688;50.234;19.292;2023-03-31T07:53:46;97565.23;;;18.33;45.55
69127;BME280;56688;50.234;19.292;2023-03-31T07:56:15;97558.16;;;18.10;46.38
69127;BME280;56688;50.234;19.292;2023-03-31T07:58:43;97557.35;;;18.17;46.01
69127;BME280;56688;50.234;19.292;2023-03-31T08:01:13;97553.27;;;18.48;45.75
69127;BME280;56688;50.234;19.292;2023-03-31T08:03:46;97544.58;;;18.80;45.05
69127;BME280;56688;50.234;19.292;2023-03-31T08:06:18;97544.09;;;19.09;44.80
69127;BME280;56688;50.234;19.292;2023-03-31T08:08:46;97540.33;;;19.42;44.04
69127;BME280;56688;50.234;19.292;2023-03-31T08:11:13;97536.86;;;19.68;43.37
69127;BME280;56688;50.234;19.292;2023-03-31T08:13:39;97538.81;;;19.81;42.51
69127;BME280;56688;50.234;19.292;2023-03-31T08:16:06;97535.77;;;19.90;42.23
69127;BME280;56688;50.234;19.292;2023-03-31T08:18:34;97534.37;;;19.80;41.87
69127;BME280;56688;50.234;19.292;2023-03-31T08:21:01;97531.67;;;19.55;42.47
69127;BME280;56688;50.234;19.292;2023-03-31T08:23:27;97528.50;;;19.35;42.80
69127;BME280;56688;50.234;19.292;2023-03-31T08:26:06;97520.86;;;19.09;43.13
69127;BME280;56688;50.234;19.292;2023-03-31T08:28:34;97514.52;;;18.91;43.45
69127;BME280;56688;50.234;19.292;2023-03-31T08:31:04;97510.19;;;18.87;44.14
69127;BME280;56688;50.234;19.292;2023-03-31T08:33:31;97506.48;;;18.80;44.02
69127;BME280;56688;50.234;19.292;2023-03-31T08:36:07;97507.88;;;18.80;44.55
69127;BME280;56688;50.234;19.292;2023-03-31T08:38:37;97503.38;;;18.90;44.69
69127;BME280;56688;50.234;19.292;2023-03-31T08:41:09;97496.05;;;18.83;44.62
69127;BME280;56688;50.234;19.292;2023-03-31T08:43:43;97481.91;;;18.69;44.43
69127;BME280;56688;50.234;19.292;2023-03-31T08:46:14;97477.11;;;18.49;44.40
69127;BME280;56688;50.234;19.292;2023-03-31T08:48:47;97470.70;;;18.34;44.97
69127;BME280;56688;50.234;19.292;2023-03-31T08:51:23;97470.97;;;18.32;45.62
69127;BME280;56688;50.234;19.292;2023-03-31T08:53:58;97467.48;;;18.33;45.90
69127;BME280;56688;50.234;19.292;2023-03-31T08:56:34;97462.55;;;18.36;45.57
69127;BME280;56688;50.234;19.292;2023-03-31T08:59:06;97461.45;;;18.27;45.98
69127;BME280;56688;50.234;19.292;2023-03-31T09:01:49;97454.77;;;18.21;45.37
69127;BME280;56688;50.234;19.292;2023-03-31T09:07:12;97441.52;;;18.34;45.43
69127;BME280;56688;50.234;19.292;2023-03-31T09:12:34;97437.70;;;18.56;44.78
69127;BME280;56688;50.234;19.292;2023-03-31T09:15:09;97432.88;;;18.66;45.05
69127;BME280;56688;50.234;19.292;2023-03-31T09:17:40;97431.73;;;18.73;44.20
69127;BME280;56688;50.234;19.292;2023-03-31T09:22:46;97421.27;;;18.40;43.78
69127;BME280;56688;50.234;19.292;2023-03-31T09:25:19;97415.56;;;18.24;43.81
69127;BME280;56688;50.234;19.292;2023-03-31T09:27:48;97417.67;;;18.13;44.86
69127;BME280;56688;50.234;19.292;2023-03-31T09:30:20;97410.13;;;18.05;45.56
69127;BME280;56688;50.234;19.292;2023-03-31T09:32:52;97408.31;;;18.00;45.02
69127;BME280;56688;50.234;19.292;2023-03-31T09:35:23;97409.42;;;17.87;45.06
69127;BME280;56688;50.234;19.292;2023-03-31T09:37:52;97408.65;;;17.74;45.55
69127;BME280;56688;50.234;19.292;2023-03-31T09:40:22;97408.89;;;17.65;45.84
69127;BME280;56688;50.234;19.292;2023-03-31T09:42:54;97402.02;;;17.49;46.44
69127;BME280;56688;50.234;19.292;2023-03-31T09:45:22;97403.63;;;17.47;47.28
69127;BME280;56688;50.234;19.292;2023-03-31T09:47:52;97394.80;;;17.43;47.00
69127;BME280;56688;50.234;19.292;2023-03-31T09:50:21;97387.15;;;17.47;46.72
69127;BME280;56688;50.234;19.292;2023-03-31T09:52:57;97380.09;;;17.56;47.59
69127;BME280;56688;50.234;19.292;2023-03-31T09:55:42;97370.80;;;17.78;47.03
69127;BME280;56688;50.234;19.292;2023-03-31T09:58:14;97363.20;;;18.03;45.76
69127;BME280;56688;50.234;19.292;2023-03-31T10:00:43;97359.21;;;18.21;46.45
69127;BME280;56688;50.234;19.292;2023-03-31T10:03:23;97359.83;;;18.45;45.33
69127;BME280;56688;50.234;19.292;2023-03-31T10:05:51;97356.77;;;18.39;44.73
69127;BME280;56688;50.234;19.292;2023-03-31T10:13:25;97348.10;;;18.27;45.14
69127;BME280;56688;50.234;19.292;2023-03-31T10:16:02;97349.73;;;18.16;44.52
69127;BME280;56688;50.234;19.292;2023-03-31T10:18:33;97344.88;;;17.93;44.20
69127;BME280;56688;50.234;19.292;2023-03-31T10:21:02;97340.44;;;17.71;43.69
69127;BME280;56688;50.234;19.292;2023-03-31T10:23:33;97344.67;;;17.57;44.48
69127;BME280;56688;50.234;19.292;2023-03-31T10:26:01;97342.17;;;17.37;45.00
69127;BME280;56688;50.234;19.292;2023-03-31T10:28:31;97346.97;;;17.16;45.43
69127;BME280;56688;50.234;19.292;2023-03-31T10:31:00;97346.83;;;16.97;46.20
69127;BME280;56688;50.234;19.292;2023-03-31T10:33:30;97344.58;;;16.80;47.25
69127;BME280;56688;50.234;19.292;2023-03-31T10:36:07;97337.48;;;16.70;47.56
69127;BME280;56688;50.234;19.292;2023-03-31T10:38:38;97344.14;;;16.54;48.07
69127;BME280;56688;50.234;19.292;2023-03-31T10:41:08;97345.36;;;16.46;48.86
69127;BME280;56688;50.234;19.292;2023-03-31T10:43:39;97339.66;;;16.33;49.14
69127;BME280;56688;50.234;19.292;2023-03-31T10:46:07;97340.89;;;16.22;49.75
69127;BME280;56688;50.234;19.292;2023-03-31T10:48:38;97336.08;;;16.11;49.73
69127;BME280;56688;50.234;19.292;2023-03-31T10:53:44;97333.23;;;15.99;49.92
69127;BME280;56688;50.234;19.292;2023-03-31T10:56:17;97337.02;;;15.91;50.73
69127;BME280;56688;50.234;19.292;2023-03-31T10:59:07;97336.53;;;15.94;51.16
69127;BME280;56688;50.234;19.292;2023-03-31T11:12:35;97319.65;;;15.64;52.22
69127;BME280;56688;50.234;19.292;2023-03-31T11:42:17;97272.58;;;15.60;53.59
69127;BME280;56688;50.234;19.292;2023-03-31T11:44:50;97271.36;;;15.64;53.26
69127;BME280;56688;50.234;19.292;2023-03-31T11:47:22;97267.41;;;15.66;53.09
69127;BME280;56688;50.234;19.292;2023-03-31T11:49:55;97270.36;;;15.60;53.43
69127;BME280;56688;50.234;19.292;2023-03-31T11:52:29;97258.27;;;15.63;53.15
69127;BME280;56688;50.234;19.292;2023-03-31T12:00:05;97248.20;;;15.95;52.17
69127;BME280;56688;50.234;19.292;2023-03-31T12:05:21;97229.42;;;16.51;51.34
69127;BME280;56688;50.234;19.292;2023-03-31T12:10:33;97219.45;;;17.10;49.40
69127;BME280;56688;50.234;19.292;2023-03-31T12:13:16;97212.67;;;17.12;49.21
69127;BME280;56688;50.234;19.292;2023-03-31T12:15:57;97205.07;;;17.14;49.09
69127;BME280;56688;50.234;19.292;2023-03-31T12:18:31;97205.71;;;17.05;48.69
69127;BME280;56688;50.234;19.292;2023-03-31T12:21:03;97198.45;;;17.08;48.70
69127;BME280;56688;50.234;19.292;2023-03-31T12:23:38;97189.38;;;17.27;47.29
69127;BME280;56688;50.234;19.292;2023-03-31T12:28:35;97177.84;;;17.93;46.04
69127;BME280;56688;50.234;19.292;2023-03-31T12:31:05;97174.39;;;17.93;45.42
69127;BME280;56688;50.234;19.292;2023-03-31T12:33:37;97168.16;;;17.90;45.67
69127;BME280;56688;50.234;19.292;2023-03-31T12:36:24;97160.88;;;17.98;45.28
69127;BME280;56688;50.234;19.292;2023-03-31T12:39:09;97151.92;;;18.38;44.66
69127;BME280;56688;50.234;19.292;2023-03-31T12:47:40;97140.41;;;20.06;39.77
69127;BME280;56688;50.234;19.292;2023-03-31T12:50:19;97139.61;;;19.69;39.79
69127;BME280;56688;50.234;19.292;2023-03-31T13:06:02;97125.91;;;17.90;43.31
69127;BME280;56688;50.234;19.292;2023-03-31T13:08:49;97113.33;;;17.69;43.64
69127;BME280;56688;50.234;19.292;2023-03-31T13:11:19;97115.04;;;17.45;44.38
69127;BME280;56688;50.234;19.292;2023-03-31T13:14:03;97110.73;;;17.20;45.28
69127;BME280;56688;50.234;19.292;2023-03-31T13:16:33;97110.55;;;16.89;47.23
69127;BME280;56688;50.234;19.292;2023-03-31T13:19:00;97110.08;;;16.63;49.26
69127;BME280;56688;50.234;19.292;2023-03-31T13:21:28;97108.90;;;16.41;49.76
69127;BME280;56688;50.234;19.292;2023-03-31T13:24:05;97100.14;;;16.21;47.67
69127;BME280;56688;50.234;19.292;2023-03-31T13:34:39;97094.48;;;15.64;49.63
69127;BME280;56688;50.234;19.292;2023-03-31T13:40:05;97091.58;;;15.21;52.85
69127;BME280;56688;50.234;19.292;2023-03-31T13:42:52;97086.17;;;15.08;52.39
69127;BME280;56688;50.234;19.292;2023-03-31T13:56:11;97061.55;;;15.57;46.61
69127;BME280;56688;50.234;19.292;2023-03-31T14:07:07;97055.30;;;15.72;45.04
69127;BME280;56688;50.234;19.292;2023-03-31T14:09:39;97051.66;;;15.67;45.02
69127;BME280;56688;50.234;19.292;2023-03-31T14:14:55;97045.80;;;15.63;45.36
69127;BME280;56688;50.234;19.292;2023-03-31T14:17:26;97040.36;;;15.59;45.30
69127;BME280;56688;50.234;19.292;2023-03-31T14:28:11;97049.28;;;15.09;50.19
69127;BME280;56688;50.234;19.292;2023-03-31T14:38:47;97043.13;;;14.43;54.44
69127;BME280;56688;50.234;19.292;2023-03-31T14:41:18;97036.52;;;14.35;55.34
69127;BME280;56688;50.234;19.292;2023-03-31T14:43:48;97036.94;;;14.32;55.78
69127;BME280;56688;50.234;19.292;2023-03-31T14:46:19;97035.11;;;14.31;56.66
69127;BME280;56688;50.234;19.292;2023-03-31T14:48:49;97034.30;;;14.30;57.36
69127;BME280;56688;50.234;19.292;2023-03-31T14:51:22;97032.59;;;14.20;57.54
69127;BME280;56688;50.234;19.292;2023-03-31T14:53:58;97030.64;;;14.08;58.14
69127;BME280;56688;50.234;19.292;2023-03-31T14:56:37;97027.11;;;13.95;58.59
69127;BME280;56688;50.234;19.292;2023-03-31T14:59:06;97020.34;;;13.87;59.35
69127;BME280;56688;50.234;19.292;2023-03-31T15:01:35;97014.27;;;13.82;59.61
69127;BME280;56688;50.234;19.292;2023-03-31T15:04:10;97008.59;;;13.76;59.79
69127;BME280;56688;50.234;19.292;2023-03-31T15:06:39;97002.20;;;13.73;60.38
69127;BME280;56688;50.234;19.292;2023-03-31T15:09:14;96994.67;;;13.70;60.46
69127;BME280;56688;50.234;19.292;2023-03-31T15:11:45;96994.20;;;13.66;60.89
69127;BME280;56688;50.234;19.292;2023-03-31T15:14:13;96988.10;;;13.65;60.41
69127;BME280;56688;50.234;19.292;2023-03-31T15:16:42;96988.02;;;13.62;61.12
69127;BME280;56688;50.234;19.292;2023-03-31T15:19:28;96987.34;;;13.59;61.39
69127;BME280;56688;50.234;19.292;2023-03-31T15:22:01;96978.73;;;13.58;60.58
69127;BME280;56688;50.234;19.292;2023-03-31T15:24:29;96975.20;;;13.56;60.45
69127;BME280;56688;50.234;19.292;2023-03-31T15:27:01;96968.50;;;13.53;60.24
69127;BME280;56688;50.234;19.292;2023-03-31T15:29:37;96961.98;;;13.50;60.57
69127;BME280;56688;50.234;19.292;2023-03-31T15:32:13;96961.13;;;13.45;61.12
69127;BME280;56688;50.234;19.292;2023-03-31T15:34:42;96963.15;;;13.44;62.15
69127;BME280;56688;50.234;19.292;2023-03-31T15:37:09;96957.96;;;13.44;62.80
69127;BME280;56688;50.234;19.292;2023-03-31T15:39:36;96951.45;;;13.44;63.47
69127;BME280;56688;50.234;19.292;2023-03-31T15:42:05;96945.50;;;13.37;63.89
69127;BME280;56688;50.234;19.292;2023-03-31T15:47:20;96932.14;;;13.24;65.84
69127;BME280;56688;50.234;19.292;2023-03-31T15:52:27;96927.34;;;13.22;67.30
69127;BME280;56688;50.234;19.292;2023-03-31T15:54:54;96924.53;;;13.25;68.10
69127;BME280;56688;50.234;19.292;2023-03-31T15:57:30;96920.73;;;13.25;68.38
69127;BME280;56688;50.234;19.292;2023-03-31T15:59:58;96914.95;;;13.23;68.64
69127;BME280;56688;50.234;19.292;2023-03-31T16:02:38;96898.65;;;13.26;68.65
69127;BME280;56688;50.234;19.292;2023-03-31T16:05:06;96890.94;;;13.30;68.57
69127;BME280;56688;50.234;19.292;2023-03-31T16:07:46;96892.73;;;13.35;67.93
69127;BME280;56688;50.234;19.292;2023-03-31T16:10:21;96890.84;;;13.34;67.84